Airfield :
LOGIN :

Register | Disclaimer

   EN    FR    IT 

 










Legend :    VFR   Marginal VFR   IFR   Intensive IFR   Very Intensive IFR
Visi :
Ceiling :
>= 8 km
>= 3000ft
5 to 8 km
1000 to 3000 ft
1500m to 5 km
500 to 1000 ft
800 to 1500m
200 to 500 ft
< 800m
< 200 ft
Symbols :   Thunderstorms  Fog  Heavy snow  Heavy precipitations  Wind > 20 kt
SIGMETs :     Misc.  Thunderstorms  Icing  Turbulence  Mountain Waves  Volcanic Ashes







- Airport Elevation : 1106 ft
- Download approach charts


LFSO - Nancy / Ochey

CURRENT METAR :
  • 261230Z AUTO 26010KT 230V300 9999 FEW038 BKN050 20/12 Q1013 NOSIG

EXPIRED METARs :
  • 261200Z AUTO 27010KT 240V310 9999 FEW036 BKN049 20/12 Q1013 NOSIG
  • 261130Z AUTO 25010KT 230V300 9999 SCT035/// BKN044/// 19/12 Q1013 NOSIG
  • 261100Z AUTO 27010KT 220V300 9999 FEW034 BKN042 19/11 Q1013 NOSIG
  • 261030Z AUTO 27011KT 220V320 9999 BKN036/// 19/12 Q1013 NOSIG
  • 261000Z AUTO 26010KT 230V290 9999 FEW029 OVC037 18/11 Q1013 NOSIG

TAF TAF LFSO
Valid from the 26 at 09:00 until the 27 at 09:00 UTC


260800Z 2609/2709 27010KT 9999 BKN018
FM261200 28010KT 9999 BKN035
BECMG 2622/2624 21010KT OVC010
TEMPO 2700/2706 3000 -RADZ BKN003 OVC010
No reported NOTAMs for that airfield.



MET'MAP, your aeronautical weather chart ! - Copyright ORBIFLY December 2007 - Disclaimer

ORBIFLY MET'MAP TEAM :

Programming & Development : Alexandra Zaïnal
Concept & Development : Baudouin d'Aumeries
Co-Development & Prog : Marc-Olivier Méhu
Technical & hardware support : Manuel Goepfert

Contact : metmap@orbifly.com




SOURCES & CREDITS :

   NOAA